To NAV CANADA Home Page Login to a new session Search on AWWS site Disclaimer Vers la page française équivalente Tips FAQ What's new on the site To the Forecasts and Observations / NOTAM section To "File a Flight Plan" website Publications and other links Update of the User's profile FIC Telephone Numbers My Weather Data Folder Route Weather Data Regional Weather Data Local Weather Data To the Forecasts and Observations / NOTAM section
Request Generated 03/19/2019 at 23:10:00 UTC . Weather information available at that time is displayed.

METAR/TAF

YELLOWKNIFE/NT    

METAR CYZF 192300Z 17008KT 15SM SCT240 02/M02 A2978 RMK CI3 SLP101=
SPECI CYZF 192247Z 16011KT 14SM SCT240 02/M02 A2978 RMK CI3 SLP100=
METAR CYZF 192200Z 16005KT 15SM SCT240 04/M02 A2979 RMK CI3 SLP103=
METAR CYZF 192100Z 16007KT 15SM FEW240 02/M03 A2981 RMK CI2 SLP110=

TAF CYZF 191738Z 1918/2018 15005KT P6SM FEW120 BKN240
BECMG 1919/1921 21005KT
BECMG 2002/2004 28005KT
FM200800 32005KT P6SM SKC
BECMG 2015/2017 35012KT
RMK NXT FCST BY 200000Z=
Your time UTC time
Weather data provided by Environment Canada and NAV CANADA